createdAt,value
2018-04-07T00:00:08.170Z,13.17
2018-04-07T00:02:35.840Z,12.00
2018-04-07T00:05:03.554Z,11.73
2018-04-07T00:07:31.230Z,11.33
2018-04-07T00:09:58.884Z,12.27
2018-04-07T00:12:26.544Z,12.70
2018-04-07T00:14:54.134Z,11.63
2018-04-07T00:17:21.853Z,10.93
2018-04-07T00:19:49.456Z,11.87
2018-04-07T00:22:17.114Z,12.10
2018-04-07T00:24:44.672Z,12.60
2018-04-07T00:27:12.248Z,12.00
2018-04-07T00:29:40.720Z,12.43
2018-04-07T00:32:08.306Z,12.10
2018-04-07T00:34:35.970Z,11.17
2018-04-07T00:37:03.834Z,11.00
2018-04-07T00:39:31.529Z,12.17
2018-04-07T00:41:59.950Z,11.87
2018-04-07T00:44:27.634Z,12.37
2018-04-07T00:46:55.267Z,11.80
2018-04-07T00:49:22.950Z,10.77
2018-04-07T00:51:50.531Z,12.17
2018-04-07T00:54:18.172Z,11.33
2018-04-07T00:56:45.750Z,12.23
2018-04-07T00:59:13.392Z,11.77
2018-04-07T01:01:40.982Z,11.27
2018-04-07T01:04:09.495Z,11.30
2018-04-07T01:06:37.054Z,11.43
2018-04-07T01:09:04.691Z,11.77
2018-04-07T01:11:32.330Z,11.57
2018-04-07T01:13:59.956Z,11.83
2018-04-07T01:16:27.515Z,11.47
2018-04-07T01:18:55.141Z,11.43
2018-04-07T01:21:22.742Z,12.40
2018-04-07T01:23:50.337Z,11.63
2018-04-07T01:26:18.026Z,12.10
2018-04-07T01:28:46.365Z,11.90
2018-04-07T01:31:14.015Z,11.83
2018-04-07T01:33:41.575Z,12.53
2018-04-07T01:36:09.260Z,12.00
2018-04-07T01:38:37.204Z,12.07
2018-04-07T01:41:04.860Z,12.20
2018-04-07T01:43:32.474Z,12.70
2018-04-07T01:46:00.226Z,12.70
2018-04-07T01:48:27.860Z,11.37
2018-04-07T01:50:56.286Z,11.50
2018-04-07T01:53:24.649Z,12.17
2018-04-07T01:55:52.292Z,11.93
2018-04-07T01:58:19.901Z,13.23
2018-04-07T02:00:47.582Z,11.57
2018-04-07T02:03:15.191Z,11.83
2018-04-07T02:05:42.871Z,11.97
2018-04-07T02:08:11.328Z,11.60
2018-04-07T02:10:38.949Z,11.30
2018-04-07T02:13:06.588Z,11.27
2018-04-07T02:15:34.307Z,11.07
2018-04-07T02:18:01.988Z,10.67
2018-04-07T02:20:30.375Z,10.73
2018-04-07T02:22:58.064Z,11.33
2018-04-07T02:25:25.763Z,11.60
2018-04-07T02:27:53.414Z,12.10
2018-04-07T02:30:21.079Z,12.33
2018-04-07T02:32:48.754Z,10.80
2018-04-07T02:35:16.364Z,11.13
2018-04-07T02:37:44.010Z,12.07
2018-04-07T02:40:11.628Z,10.60
2018-04-07T02:42:39.352Z,11.37
2018-04-07T02:45:06.863Z,11.53
2018-04-07T02:47:34.497Z,12.27
2018-04-07T02:50:02.106Z,11.93
2018-04-07T02:52:29.763Z,10.73
2018-04-07T02:54:57.375Z,11.90
2018-04-07T02:57:25.021Z,10.87
2018-04-07T02:59:52.646Z,11.07
2018-04-07T03:02:20.300Z,12.07
2018-04-07T03:04:47.845Z,12.03
2018-04-07T03:07:15.501Z,10.83
2018-04-07T03:09:43.118Z,11.10
2018-04-07T03:12:10.663Z,11.80
2018-04-07T03:14:38.326Z,11.80
2018-04-07T03:17:06.653Z,11.37
2018-04-07T03:19:34.360Z,9.90
2018-04-07T03:22:02.028Z,11.03
2018-04-07T03:24:30.471Z,11.37
2018-04-07T03:26:58.089Z,11.73
2018-04-07T03:29:25.729Z,12.67
2018-04-07T03:31:53.529Z,12.27
2018-04-07T03:34:21.168Z,11.80
2018-04-07T03:36:48.721Z,12.17
2018-04-07T03:39:16.351Z,11.73
2018-04-07T03:41:43.941Z,11.93
2018-04-07T03:44:12.434Z,11.07
2018-04-07T03:46:40.082Z,12.53
2018-04-07T03:49:08.447Z,11.90
2018-04-07T03:51:36.068Z,11.97
2018-04-07T03:54:03.671Z,11.10
2018-04-07T03:56:31.414Z,11.80
2018-04-07T03:58:59.836Z,11.13
2018-04-07T04:01:27.559Z,12.20
2018-04-07T04:03:55.216Z,11.43
2018-04-07T04:06:22.866Z,10.60
2018-04-07T04:08:50.558Z,11.80
2018-04-07T04:11:18.260Z,12.23
2018-04-07T04:13:45.876Z,11.67
2018-04-07T04:16:14.214Z,13.62
2018-04-07T04:18:41.869Z,11.93
2018-04-07T04:21:09.557Z,12.23
2018-04-07T04:23:37.158Z,11.10
2018-04-07T04:26:04.797Z,12.43
2018-04-07T04:28:32.475Z,11.47
2018-04-07T04:31:00.200Z,11.53
2018-04-07T04:33:27.819Z,11.23
2018-04-07T04:35:56.050Z,12.07
2018-04-07T04:38:23.736Z,12.70
2018-04-07T04:40:51.365Z,11.40
2018-04-07T04:43:19.031Z,11.60
2018-04-07T04:45:46.622Z,13.03
2018-04-07T04:48:14.366Z,11.60
2018-04-07T04:50:42.026Z,12.03
2018-04-07T04:53:09.759Z,10.97
2018-04-07T04:55:37.443Z,10.80
2018-04-07T04:58:05.138Z,10.80
2018-04-07T05:00:32.822Z,10.17
2018-04-07T05:03:01.270Z,9.73
2018-04-07T05:05:29.012Z,9.93
2018-04-07T05:07:58.531Z,10.53
2018-04-07T05:10:27.248Z,9.97
2018-04-07T05:12:54.956Z,10.23
2018-04-07T05:15:23.439Z,9.80
2018-04-07T05:17:52.832Z,10.37
2018-04-07T05:20:22.040Z,10.37
2018-04-07T05:22:49.845Z,9.50
2018-04-07T05:25:17.730Z,9.97
2018-04-07T05:27:45.663Z,11.30
2018-04-07T05:30:13.461Z,10.23
2018-04-07T05:32:41.463Z,10.50
2018-04-07T05:35:09.870Z,10.43
2018-04-07T05:37:38.911Z,10.93
2018-04-07T05:40:07.798Z,10.93
2018-04-07T05:42:36.190Z,11.00
2018-04-07T05:45:03.907Z,12.07
2018-04-07T05:47:31.916Z,12.93
2018-04-07T05:49:59.528Z,11.53
2018-04-07T05:52:27.179Z,12.73
2018-04-07T05:54:54.829Z,13.33
2018-04-07T05:57:23.228Z,13.57
2018-04-07T05:59:50.894Z,14.73
2018-04-07T06:02:18.634Z,13.67
2018-04-07T06:04:46.219Z,13.77
2018-04-07T06:07:13.861Z,14.80
2018-04-07T06:09:41.515Z,14.93
2018-04-07T06:12:09.112Z,14.63
2018-04-07T06:14:36.802Z,13.60
2018-04-07T06:17:04.483Z,14.80
2018-04-07T06:19:32.099Z,14.20
2018-04-07T06:21:59.791Z,13.83
2018-04-07T06:24:27.540Z,14.47
2018-04-07T06:26:55.141Z,14.10
2018-04-07T06:29:23.549Z,14.30
2018-04-07T06:31:51.174Z,13.20
2018-04-07T06:34:18.858Z,14.20
2018-04-07T06:36:46.507Z,12.97
2018-04-07T06:39:14.095Z,13.27
2018-04-07T06:41:41.681Z,15.30
2018-04-07T06:44:09.317Z,12.60
2018-04-07T06:46:37.016Z,13.13
2018-04-07T06:49:04.633Z,12.27
2018-04-07T06:51:32.561Z,14.53
2018-04-07T06:54:00.187Z,13.87
2018-04-07T06:56:27.823Z,13.43
2018-04-07T06:58:56.247Z,13.53
2018-04-07T07:01:23.972Z,12.07
2018-04-07T07:03:51.659Z,11.47
2018-04-07T07:06:19.293Z,12.37
2018-04-07T07:08:46.950Z,11.30
2018-04-07T07:11:15.157Z,11.53
2018-04-07T07:13:42.809Z,11.80
2018-04-07T07:16:10.523Z,11.07
2018-04-07T07:18:38.211Z,10.20
2018-04-07T07:21:05.891Z,10.50
2018-04-07T07:23:33.479Z,10.50
2018-04-07T07:26:01.129Z,10.80
2018-04-07T07:28:28.761Z,9.97
2018-04-07T07:30:56.437Z,9.90
2018-04-07T07:33:24.254Z,9.70
2018-04-07T07:35:52.646Z,10.50
2018-04-07T07:38:21.078Z,10.43
2018-04-07T07:40:48.717Z,9.20
2018-04-07T07:43:16.506Z,9.13
2018-04-07T07:45:44.183Z,9.00
2018-04-07T07:48:11.921Z,10.07
2018-04-07T07:50:39.545Z,9.57
2018-04-07T07:53:07.240Z,9.47
2018-04-07T07:55:34.834Z,9.80
2018-04-07T07:58:03.238Z,9.80
2018-04-07T08:00:30.867Z,9.63
2018-04-07T08:02:58.579Z,9.67
2018-04-07T08:05:26.237Z,9.70
2018-04-07T08:07:53.823Z,10.63
2018-04-07T08:10:21.480Z,9.80
2018-04-07T08:12:49.136Z,10.70
2018-04-07T08:15:16.794Z,10.40
2018-04-07T08:17:44.491Z,10.27
2018-04-07T08:20:12.124Z,13.27
2018-04-07T08:22:39.741Z,10.60
2018-04-07T08:25:07.431Z,10.83
2018-04-07T08:27:35.794Z,10.63
2018-04-07T08:30:03.490Z,11.27
2018-04-07T08:32:31.141Z,10.17
2018-04-07T08:34:58.883Z,11.83
2018-04-07T08:37:26.538Z,11.30
2018-04-07T08:39:54.236Z,11.27
2018-04-07T08:42:22.312Z,11.40
2018-04-07T08:44:50.027Z,10.80
2018-04-07T08:47:17.775Z,10.90
2018-04-07T08:49:45.504Z,10.67
2018-04-07T08:52:13.327Z,10.27
2018-04-07T08:54:40.996Z,10.70
2018-04-07T08:57:08.677Z,11.13
2018-04-07T08:59:38.397Z,10.60
2018-04-07T09:02:06.094Z,11.17
2018-04-07T09:04:33.745Z,10.07
2018-04-07T09:07:01.424Z,10.67
2018-04-07T09:09:29.812Z,10.63
2018-04-07T09:11:57.617Z,10.70
2018-04-07T09:14:25.266Z,10.40
2018-04-07T09:16:53.750Z,10.37
2018-04-07T09:19:21.333Z,9.57
2018-04-07T09:21:48.983Z,10.27
2018-04-07T09:24:16.621Z,11.23
2018-04-07T09:26:45.025Z,10.53
2018-04-07T09:29:12.615Z,11.77
2018-04-07T09:31:40.236Z,10.90
2018-04-07T09:34:07.846Z,11.30
2018-04-07T09:36:35.475Z,10.70
2018-04-07T09:39:03.160Z,10.80
2018-04-07T09:41:30.923Z,10.23
2018-04-07T09:43:58.512Z,10.90
2018-04-07T09:46:26.173Z,10.80
2018-04-07T09:48:54.605Z,10.63
2018-04-07T09:51:22.203Z,10.07
2018-04-07T09:53:49.939Z,10.40
2018-04-07T09:56:18.434Z,10.70
2018-04-07T09:58:46.152Z,10.43
2018-04-07T10:01:14.538Z,9.83
2018-04-07T10:03:42.283Z,9.47
2018-04-07T10:06:09.992Z,9.87
2018-04-07T10:08:38.454Z,9.70
2018-04-07T10:11:07.064Z,9.03
2018-04-07T10:13:34.762Z,8.63
2018-04-07T10:16:02.517Z,8.37
2018-04-07T10:18:31.340Z,7.80
2018-04-07T10:21:00.184Z,7.77
2018-04-07T10:23:27.987Z,7.80
2018-04-07T10:25:55.686Z,8.83
2018-04-07T10:28:23.341Z,8.27
2018-04-07T10:30:51.072Z,7.77
2018-04-07T10:33:18.721Z,8.47
2018-04-07T10:35:46.373Z,8.70
2018-04-07T10:38:14.055Z,8.57
2018-04-07T10:40:42.493Z,7.83
2018-04-07T10:43:10.120Z,7.10
2018-04-07T10:45:37.762Z,7.23
2018-04-07T10:48:05.918Z,7.60
2018-04-07T10:50:33.589Z,7.23
2018-04-07T10:53:01.213Z,8.13
2018-04-07T10:55:29.746Z,7.50
2018-04-07T10:57:58.216Z,8.23
2018-04-07T11:00:25.948Z,8.70
2018-04-07T11:02:53.681Z,8.30
2018-04-07T11:05:22.457Z,8.53
2018-04-07T11:07:50.095Z,9.23
2018-04-07T11:10:17.923Z,9.37
2018-04-07T11:12:45.595Z,9.80
2018-04-07T11:15:13.416Z,9.73
2018-04-07T11:17:41.125Z,9.53
2018-04-07T11:20:08.934Z,10.17
2018-04-07T11:22:36.643Z,9.70
2018-04-07T11:25:04.451Z,9.53
2018-04-07T11:27:32.308Z,9.37
2018-04-07T11:30:00.068Z,10.43
2018-04-07T11:32:27.706Z,9.60
2018-04-07T11:34:55.537Z,9.63
2018-04-07T11:37:23.238Z,8.93
2018-04-07T11:39:50.962Z,10.10
2018-04-07T11:42:19.506Z,9.57
2018-04-07T11:44:47.252Z,11.00
2018-04-07T11:47:15.481Z,11.90
2018-04-07T11:49:43.453Z,10.97
2018-04-07T11:52:11.370Z,12.23
2018-04-07T11:54:40.042Z,10.37
2018-04-07T11:57:07.885Z,10.07
2018-04-07T11:59:37.601Z,10.40
2018-04-07T12:02:06.755Z,10.77
2018-04-07T12:04:36.943Z,10.13
2018-04-07T12:07:05.105Z,9.73
2018-04-07T12:09:33.172Z,10.80
2018-04-07T12:12:01.062Z,10.67
2018-04-07T12:14:29.107Z,9.63
2018-04-07T12:16:58.219Z,9.20
2018-04-07T12:19:27.047Z,8.87
2018-04-07T12:21:55.708Z,8.70
2018-04-07T12:24:23.662Z,9.27
2018-04-07T12:26:51.458Z,8.00
2018-04-07T12:29:19.192Z,7.97
2018-04-07T12:31:48.851Z,7.90
2018-04-07T12:34:17.620Z,7.90
2018-04-07T12:36:51.063Z,8.43
2018-04-07T12:39:21.980Z,7.90
2018-04-07T12:41:49.696Z,8.23
2018-04-07T12:44:18.224Z,7.90
2018-04-07T12:46:46.167Z,7.70
2018-04-07T12:49:14.442Z,7.70
2018-04-07T12:51:42.380Z,7.53
2018-04-07T12:54:12.381Z,7.03
2018-04-07T12:56:40.484Z,6.30
2018-04-07T12:59:08.670Z,7.40
2018-04-07T13:01:36.446Z,7.17
2018-04-07T13:04:04.159Z,7.00
2018-04-07T13:06:32.250Z,7.13
2018-04-07T13:09:01.191Z,6.50
2018-04-07T13:11:29.850Z,6.90
2018-04-07T13:13:59.320Z,7.20
2018-04-07T13:16:27.302Z,6.83
2018-04-07T13:18:56.628Z,6.60
2018-04-07T13:21:25.289Z,7.20
2018-04-07T13:23:54.329Z,7.37
2018-04-07T13:26:22.125Z,6.97
2018-04-07T13:28:50.464Z,6.93
2018-04-07T13:31:19.187Z,6.80
2018-04-07T13:33:46.984Z,6.73
2018-04-07T13:36:15.267Z,6.10
2018-04-07T13:38:42.972Z,6.47
2018-04-07T13:41:14.075Z,6.20
2018-04-07T13:43:42.085Z,6.40
2018-04-07T13:46:14.975Z,5.47
2018-04-07T13:48:46.744Z,5.13
2018-04-07T13:51:14.780Z,5.67
2018-04-07T13:53:44.058Z,6.60
2018-04-07T13:56:15.992Z,5.70
2018-04-07T13:58:44.138Z,5.53
2018-04-07T14:01:22.307Z,5.87
2018-04-07T14:03:53.388Z,5.43
2018-04-07T14:06:24.264Z,6.30
2018-04-07T14:08:56.052Z,7.37
2018-04-07T14:11:28.066Z,6.37
2018-04-07T14:13:58.913Z,6.87
2018-04-07T14:16:28.072Z,6.97
2018-04-07T14:18:58.441Z,7.03
2018-04-07T14:21:34.166Z,7.60
2018-04-07T14:24:03.852Z,9.13
2018-04-07T14:26:31.963Z,10.43
2018-04-07T14:29:00.004Z,9.57
2018-04-07T14:31:27.837Z,10.27
2018-04-07T14:33:56.779Z,11.17
2018-04-07T14:36:25.074Z,10.37
2018-04-07T14:38:52.817Z,10.00
2018-04-07T14:41:20.682Z,11.13
2018-04-07T14:43:48.490Z,11.03
2018-04-07T14:46:17.094Z,11.93
2018-04-07T14:48:45.611Z,11.40
2018-04-07T14:51:14.198Z,11.97
2018-04-07T14:53:44.371Z,11.47
2018-04-07T14:56:12.311Z,12.10
2018-04-07T14:58:40.266Z,11.57
2018-04-07T15:01:08.756Z,12.47
2018-04-07T15:03:36.789Z,12.00
2018-04-07T15:06:06.024Z,13.80
2018-04-07T15:08:34.664Z,13.37
2018-04-07T15:11:02.343Z,14.87
2018-04-07T15:13:31.811Z,13.30
2018-04-07T15:15:59.663Z,13.03
2018-04-07T15:18:27.424Z,14.07
2018-04-07T15:20:57.346Z,14.40
2018-04-07T15:23:25.742Z,16.43
2018-04-07T15:25:53.536Z,15.17
2018-04-07T15:28:22.401Z,13.70
2018-04-07T15:30:50.906Z,13.50
2018-04-07T15:33:18.778Z,14.10
2018-04-07T15:35:47.302Z,13.27
2018-04-07T15:38:15.179Z,13.63
2018-04-07T15:40:42.931Z,12.93
2018-04-07T15:43:11.400Z,14.23
2018-04-07T15:45:39.192Z,12.33
2018-04-07T15:48:07.170Z,12.83
2018-04-07T15:50:35.814Z,15.03
2018-04-07T15:53:04.256Z,15.30
2018-04-07T15:55:32.147Z,15.33
2018-04-07T15:58:00.011Z,13.17
2018-04-07T16:00:27.896Z,12.83
2018-04-07T16:02:55.534Z,13.40
2018-04-07T16:05:23.524Z,14.00
2018-04-07T16:07:51.533Z,12.63
2018-04-07T16:10:21.288Z,12.70
2018-04-07T16:12:50.198Z,11.47
2018-04-07T16:15:18.866Z,11.90
2018-04-07T16:17:46.775Z,11.20
2018-04-07T16:20:15.840Z,12.10
2018-04-07T16:22:44.469Z,12.00
2018-04-07T16:25:12.399Z,12.40
2018-04-07T16:27:40.458Z,12.50
2018-04-07T16:30:08.560Z,13.27
2018-04-07T16:32:36.670Z,12.20
2018-04-07T16:35:05.550Z,13.30
2018-04-07T16:37:34.536Z,12.67
2018-04-07T16:40:02.544Z,13.33
2018-04-07T16:42:30.781Z,13.20
2018-04-07T16:44:58.890Z,12.67
2018-04-07T16:47:26.957Z,13.10
2018-04-07T16:49:55.436Z,13.87
2018-04-07T16:52:23.903Z,13.93
2018-04-07T16:54:52.220Z,13.60
2018-04-07T16:57:20.299Z,13.67
2018-04-07T16:59:48.240Z,14.53
2018-04-07T17:02:16.070Z,14.07
2018-04-07T17:04:44.574Z,16.83
2018-04-07T17:07:14.534Z,14.23
2018-04-07T17:09:43.551Z,13.67
2018-04-07T17:12:11.367Z,14.50
2018-04-07T17:14:39.260Z,17.73
2018-04-07T17:17:11.566Z,16.17
2018-04-07T17:19:40.600Z,17.60
2018-04-07T17:22:11.299Z,16.23
2018-04-07T17:24:40.399Z,15.47
2018-04-07T17:27:08.294Z,14.83
2018-04-07T17:29:36.180Z,14.77
2018-04-07T17:32:05.234Z,14.00
2018-04-07T17:34:35.068Z,14.80
2018-04-07T17:37:03.530Z,13.67
2018-04-07T17:39:31.356Z,13.73
2018-04-07T17:41:59.996Z,13.20
2018-04-07T17:44:27.954Z,16.13
2018-04-07T17:46:56.696Z,12.87
2018-04-07T17:49:25.218Z,13.00
2018-04-07T17:51:56.758Z,13.10
2018-04-07T17:54:24.560Z,14.50
2018-04-07T17:56:52.344Z,14.77
2018-04-07T17:59:21.074Z,14.03
2018-04-07T18:01:51.615Z,13.33
2018-04-07T18:04:19.448Z,13.87
2018-04-07T18:06:50.110Z,15.80
2018-04-07T18:09:18.315Z,15.23
2018-04-07T18:11:47.976Z,14.00
2018-04-07T18:14:16.382Z,13.77
2018-04-07T18:16:45.170Z,12.80
2018-04-07T18:19:13.513Z,12.07
2018-04-07T18:21:42.999Z,12.30
2018-04-07T18:24:10.748Z,12.27
2018-04-07T18:26:39.704Z,12.93
2018-04-07T18:29:07.538Z,13.67
2018-04-07T18:31:35.530Z,12.47
2018-04-07T18:34:03.201Z,12.67
2018-04-07T18:36:31.056Z,14.40
2018-04-07T18:38:59.395Z,18.13
2018-04-07T18:41:27.939Z,15.53
2018-04-07T18:43:56.832Z,15.67
2018-04-07T18:46:28.555Z,23.13
2018-04-07T18:48:57.188Z,23.67
2018-04-07T18:51:26.264Z,19.03
2018-04-07T18:53:55.737Z,17.33
2018-04-07T18:56:24.196Z,17.80
2018-04-07T18:58:53.083Z,19.10
2018-04-07T19:01:21.014Z,21.93
2018-04-07T19:03:48.860Z,20.90
2018-04-07T19:06:16.779Z,20.60
2018-04-07T19:08:45.446Z,22.97
2018-04-07T19:11:14.105Z,20.50
2018-04-07T19:13:42.278Z,22.53
2018-04-07T19:16:09.914Z,24.43
2018-04-07T19:18:37.642Z,23.33
2018-04-07T19:21:05.249Z,21.20
2018-04-07T19:23:33.013Z,22.53
2018-04-07T19:26:00.636Z,19.43
2018-04-07T19:28:29.061Z,22.10
2018-04-07T19:30:56.697Z,18.97
2018-04-07T19:33:24.333Z,20.73
2018-04-07T19:35:52.050Z,18.90
2018-04-07T19:38:20.021Z,21.10
2018-04-07T19:40:47.666Z,20.47
2018-04-07T19:43:15.659Z,21.07
2018-04-07T19:45:43.463Z,20.40
2018-04-07T19:48:12.147Z,20.53
2018-04-07T19:50:40.018Z,19.47
2018-04-07T19:53:09.810Z,20.87
2018-04-07T19:55:37.744Z,19.63
2018-04-07T19:58:07.864Z,20.03
2018-04-07T20:00:37.890Z,19.27
2018-04-07T20:03:05.889Z,20.97
2018-04-07T20:05:35.186Z,21.17
2018-04-07T20:08:03.834Z,22.57
2018-04-07T20:10:34.884Z,20.43
2018-04-07T20:13:05.716Z,20.63
2018-04-07T20:15:33.868Z,21.37
2018-04-07T20:18:04.077Z,20.73
2018-04-07T20:20:32.609Z,20.70
2018-04-07T20:23:03.502Z,21.83
2018-04-07T20:25:32.449Z,23.37
2018-04-07T20:28:01.334Z,21.30
2018-04-07T20:30:30.255Z,22.90
2018-04-07T20:32:58.050Z,22.90
2018-04-07T20:35:25.998Z,24.93
2018-04-07T20:37:54.461Z,22.67
2018-04-07T20:40:23.955Z,22.73
2018-04-07T20:42:51.920Z,23.93
2018-04-07T20:45:19.720Z,23.00
2018-04-07T20:47:47.611Z,30.67
2018-04-07T20:50:17.165Z,23.43
2018-04-07T20:52:46.037Z,23.20
2018-04-07T20:55:16.967Z,23.17
2018-04-07T20:57:44.501Z,22.17
2018-04-07T21:00:12.195Z,22.43
2018-04-07T21:02:40.119Z,20.87
2018-04-07T21:05:10.543Z,22.27
2018-04-07T21:07:38.968Z,22.23
2018-04-07T21:10:07.767Z,22.20
2018-04-07T21:12:35.596Z,21.40
2018-04-07T21:15:03.242Z,23.83
2018-04-07T21:17:30.891Z,21.43
2018-04-07T21:20:01.296Z,20.90
2018-04-07T21:22:28.972Z,21.60
2018-04-07T21:24:56.902Z,23.60
2018-04-07T21:27:24.963Z,21.93
2018-04-07T21:29:52.805Z,21.57
2018-04-07T21:32:20.644Z,22.00
2018-04-07T21:34:49.630Z,21.83
2018-04-07T21:37:17.358Z,23.37
2018-04-07T21:39:45.065Z,22.63
2018-04-07T21:42:13.594Z,22.37
2018-04-07T21:44:41.279Z,22.03
2018-04-07T21:47:08.967Z,21.77
2018-04-07T21:49:37.544Z,22.27
2018-04-07T21:52:05.325Z,22.40
2018-04-07T21:54:33.548Z,21.10
2018-04-07T21:57:01.391Z,21.27
2018-04-07T21:59:29.115Z,20.50
2018-04-07T22:01:56.735Z,20.63
2018-04-07T22:04:24.720Z,21.30
2018-04-07T22:06:52.520Z,19.70
2018-04-07T22:09:20.464Z,21.97
2018-04-07T22:11:49.563Z,22.20
2018-04-07T22:14:17.399Z,23.50
2018-04-07T22:16:47.133Z,22.47
2018-04-07T22:19:16.800Z,22.33
2018-04-07T22:21:46.211Z,23.80
2018-04-07T22:24:15.788Z,23.40
2018-04-07T22:26:43.442Z,23.00
2018-04-07T22:29:11.080Z,22.70
2018-04-07T22:31:41.144Z,23.37
2018-04-07T22:34:08.978Z,24.47
2018-04-07T22:36:36.981Z,23.00
2018-04-07T22:39:04.696Z,24.20
2018-04-07T22:41:32.434Z,25.30
2018-04-07T22:44:00.117Z,23.97
2018-04-07T22:46:27.711Z,24.53
2018-04-07T22:48:55.315Z,24.77
2018-04-07T22:51:23.974Z,24.10
2018-04-07T22:53:52.604Z,25.43
2018-04-07T22:56:20.396Z,26.23
2018-04-07T22:58:48.112Z,23.10
2018-04-07T23:01:15.814Z,27.00
2018-04-07T23:03:43.438Z,24.87
2018-04-07T23:06:11.788Z,24.70
2018-04-07T23:08:41.026Z,24.33
2018-04-07T23:11:10.602Z,25.13
2018-04-07T23:13:38.346Z,25.17
2018-04-07T23:16:07.577Z,24.23
2018-04-07T23:18:37.069Z,23.33
2018-04-07T23:21:04.794Z,24.30
2018-04-07T23:23:33.838Z,22.70
2018-04-07T23:26:02.242Z,24.47
2018-04-07T23:28:30.836Z,22.73
2018-04-07T23:30:58.701Z,23.83
2018-04-07T23:33:26.911Z,23.50
2018-04-07T23:35:56.472Z,22.37
2018-04-07T23:38:24.224Z,21.17
2018-04-07T23:40:51.995Z,18.10
2018-04-07T23:43:19.839Z,18.50
2018-04-07T23:45:47.844Z,19.77
2018-04-07T23:48:15.696Z,18.50
2018-04-07T23:50:44.520Z,16.77
2018-04-07T23:53:12.377Z,17.00
2018-04-07T23:55:40.276Z,18.47
2018-04-07T23:58:09.434Z,18.93
